Cuneyt Solakoglu — TCTN4 — position and weather

sailwx.info

Track history (hours):
 
Tides and Currents Weather Stations Pressure Air Temp Water Temp Dewpoint Dewpoint Depression Visibility Wind Speed Wind Dir Waves Ship Positions

Cuneyt Solakoglu

Last reported at 2016-Dec-07 01:24 UTC. Time now 2016-Dec-07 18:18 UTC.
Position N 43°57' E 014°14'.

Length 193 m; draft 7 m.

Type: Ship (hazmat cat A). MMSI: 271002676.

Date/timePositionNaut miles runAvg speedWind from/ knotsBaromVisibWave heightAir tempDewpointWater temp
2016-Dec-07 01:24N 43°57' E 014°14'1719.4
2016-Dec-07 00:33N 44°10' E 013°60'1919.4
2016-Dec-06 23:33N 44°27' E 013°45'1919.2
2016-Dec-06 22:33N 44°43' E 013°30'1919.1
2016-Dec-06 21:34N 44°59' E 013°16'1918.7
2016-Dec-06 20:33N 45°16' E 013°04'3316.4
2016-Dec-06 18:33N 45°38' E 013°38'5 4.8
2016-Dec-06 17:30N 45°39' E 013°45'0 0.0
2016-Dec-06 16:32N 45°39' E 013°45'0 0.0
2016-Dec-06 15:32N 45°39' E 013°45'0 0.0
2016-Dec-06 14:32N 45°39' E 013°45'0 0.0
2016-Dec-06 13:31N 45°39' E 013°45'0 0.0
2016-Dec-06 12:31N 45°39' E 013°45'0 0.0
2016-Dec-06 11:33N 45°39' E 013°45'0 0.0
2016-Dec-06 10:33N 45°39' E 013°45'0 0.0
2016-Dec-06 09:26N 45°39' E 013°45'0 0.0
2016-Dec-06 08:29N 45°39' E 013°45'1 0.9
2016-Dec-06 07:33N 45°39' E 013°44'1716.6
2016-Dec-06 06:33N 45°30' E 013°24'1716.9
2016-Dec-06 05:33N 45°14' E 013°16'1919.1
2016-Dec-06 04:33N 44°56' E 013°25'1919.2
2016-Dec-06 03:33N 44°40' E 013°38'1918.7
2016-Dec-06 02:33N 44°24' E 013°54'61916.3
2016-Dec-04 12:31N 37°35' E 024°08'2019.8
2016-Dec-04 11:30N 37°50' E 024°25'28910.3
2016-Dec-03 07:28N 40°51' E 029°16'13 1.0
2016-Dec-02 18:33N 40°44' E 029°02'7 7.1
2016-Dec-02 17:33N 40°41' E 029°09'3 2.6
2016-Dec-02 16:33N 40°41' E 029°06'6 5.5
2016-Dec-02 15:33N 40°45' E 029°10'4 3.8
2016-Dec-02 14:33N 40°49' E 029°09'26217.1
2016-Dec-01 23:14N 38°05' E 024°44'1319.7
2016-Dec-01 22:33N 37°54' E 024°37'2819.2
2016-Dec-01 21:05N 37°29' E 024°19'1019.6
2016-Dec-01 20:33N 37°21' E 024°11'61117.3
2016-Nov-30 09:15N 44°04' E 014°06'1420.0
2016-Nov-30 08:33N 44°16' E 013°55'2019.9
2016-Nov-30 07:33N 44°32' E 013°39'2019.8
2016-Nov-30 06:33N 44°49' E 013°25'2019.8
2016-Nov-30 05:33N 45°06' E 013°10'1818.2
2016-Nov-30 04:33N 45°24' E 013°06'1919.1
2016-Nov-30 03:33N 45°35' E 013°28'1312.7
2016-Nov-30 02:33N 45°39' E 013°45'0 0.0
2016-Nov-30 01:34N 45°39' E 013°45'0 0.0
2016-Nov-30 00:34N 45°39' E 013°45'0 0.0
2016-Nov-29 23:33N 45°39' E 013°45'0 0.0
2016-Nov-29 22:33N 45°39' E 013°45'0 0.0
2016-Nov-29 21:33N 45°39' E 013°45'1 1.0
2016-Nov-29 20:33N 45°39' E 013°44'1717.4
2016-Nov-29 19:33N 45°30' E 013°23'1817.5
2016-Nov-29 18:33N 45°13' E 013°16'2020.3
2016-Nov-29 17:33N 44°54' E 013°27'2020.0
2016-Nov-29 16:33N 44°37' E 013°41'2019.9
2016-Nov-29 15:34N 44°20' E 013°55'48815.7
2016-Nov-28 08:33N 37°53' E 020°30'17213.2
2016-Nov-27 19:31N 37°33' E 024°07'2119.5
2016-Nov-27 18:27N 37°49' E 024°23'  
Track history (hours):
 
Tides and Currents Weather Stations Pressure Air Temp Water Temp Dewpoint Dewpoint Depression Visibility Wind Speed Wind Dir Waves Ship Positions

Cuneyt Solakoglu

Last reported at 2016-Dec-07 01:24 UTC. Time now 2016-Dec-07 18:18 UTC.
Position N 43°57' E 014°14'.

Length 193 m; draft 7 m.

Type: Ship (hazmat cat A). MMSI: 271002676.

Date/timePositionNaut miles runAvg speedWind from/ knotsBaromVisibWave heightAir tempDewpointWater temp
2016-Dec-07 01:24N 43°57' E 014°14'1719.4
2016-Dec-07 00:33N 44°10' E 013°60'1919.4
2016-Dec-06 23:33N 44°27' E 013°45'1919.2
2016-Dec-06 22:33N 44°43' E 013°30'1919.1
2016-Dec-06 21:34N 44°59' E 013°16'1918.7
2016-Dec-06 20:33N 45°16' E 013°04'3316.4
2016-Dec-06 18:33N 45°38' E 013°38'5 4.8
2016-Dec-06 17:30N 45°39' E 013°45'0 0.0
2016-Dec-06 16:32N 45°39' E 013°45'0 0.0
2016-Dec-06 15:32N 45°39' E 013°45'0 0.0
2016-Dec-06 14:32N 45°39' E 013°45'0 0.0
2016-Dec-06 13:31N 45°39' E 013°45'0 0.0
2016-Dec-06 12:31N 45°39' E 013°45'0 0.0
2016-Dec-06 11:33N 45°39' E 013°45'0 0.0
2016-Dec-06 10:33N 45°39' E 013°45'0 0.0
2016-Dec-06 09:26N 45°39' E 013°45'0 0.0
2016-Dec-06 08:29N 45°39' E 013°45'1 0.9
2016-Dec-06 07:33N 45°39' E 013°44'1716.6
2016-Dec-06 06:33N 45°30' E 013°24'1716.9
2016-Dec-06 05:33N 45°14' E 013°16'1919.1
2016-Dec-06 04:33N 44°56' E 013°25'1919.2
2016-Dec-06 03:33N 44°40' E 013°38'1918.7
2016-Dec-06 02:33N 44°24' E 013°54'61916.3
2016-Dec-04 12:31N 37°35' E 024°08'2019.8
2016-Dec-04 11:30N 37°50' E 024°25'28910.3
2016-Dec-03 07:28N 40°51' E 029°16'13 1.0
2016-Dec-02 18:33N 40°44' E 029°02'7 7.1
2016-Dec-02 17:33N 40°41' E 029°09'3 2.6
2016-Dec-02 16:33N 40°41' E 029°06'6 5.5
2016-Dec-02 15:33N 40°45' E 029°10'4 3.8
2016-Dec-02 14:33N 40°49' E 029°09'26217.1
2016-Dec-01 23:14N 38°05' E 024°44'1319.7
2016-Dec-01 22:33N 37°54' E 024°37'2819.2
2016-Dec-01 21:05N 37°29' E 024°19'1019.6
2016-Dec-01 20:33N 37°21' E 024°11'61117.3
2016-Nov-30 09:15N 44°04' E 014°06'1420.0
2016-Nov-30 08:33N 44°16' E 013°55'2019.9
2016-Nov-30 07:33N 44°32' E 013°39'2019.8
2016-Nov-30 06:33N 44°49' E 013°25'2019.8
2016-Nov-30 05:33N 45°06' E 013°10'1818.2
2016-Nov-30 04:33N 45°24' E 013°06'1919.1
2016-Nov-30 03:33N 45°35' E 013°28'1312.7
2016-Nov-30 02:33N 45°39' E 013°45'0 0.0
2016-Nov-30 01:34N 45°39' E 013°45'0 0.0
2016-Nov-30 00:34N 45°39' E 013°45'0 0.0
2016-Nov-29 23:33N 45°39' E 013°45'0 0.0
2016-Nov-29 22:33N 45°39' E 013°45'0 0.0
2016-Nov-29 21:33N 45°39' E 013°45'1 1.0
2016-Nov-29 20:33N 45°39' E 013°44'1717.4
2016-Nov-29 19:33N 45°30' E 013°23'1817.5
2016-Nov-29 18:33N 45°13' E 013°16'2020.3
2016-Nov-29 17:33N 44°54' E 013°27'2020.0
2016-Nov-29 16:33N 44°37' E 013°41'2019.9
2016-Nov-29 15:34N 44°20' E 013°55'48815.7
2016-Nov-28 08:33N 37°53' E 020°30'17213.2
2016-Nov-27 19:31N 37°33' E 024°07'2119.5
2016-Nov-27 18:27N 37°49' E 024°23'  

Dump ship's entire track history